Time;durP1;ratioP1;P1;durP2;ratioP2;P2;SDS_P1;SDS_P2;PMS_P1;PMS_P2;Temp;Humidity;BMP_temperature;BMP_pressure;BME280_temperature;BME280_humidity;BME280_pressure;Samples;Min_cycle;Max_cycle;Signal;HPM_P1;HPM_P2
2023/08/09 00:01:08;;;;;;;;;0.00;0.00;;;;;-143.90;73.23;74748.44;4981215;28;102154;-80
2023/08/09 00:06:52;;;;;;;;;0.00;0.00;;;;;-143.90;73.54;74754.63;4979345;28;104002;-80
2023/08/09 00:09:37;;;;;;;;;0.00;0.00;;;;;-143.90;72.97;74758.75;4979455;28;103197;-81
2023/08/09 00:12:26;;;;;;;;;0.00;0.00;;;;;-143.90;73.86;74758.75;4982767;28;102048;-80
2023/08/09 00:15:14;;;;;;;;;0.00;0.00;;;;;-143.90;73.35;74760.81;4985683;28;102241;-80
2023/08/09 00:18:04;;;;;;;;;0.00;0.00;;;;;-143.90;74.30;74758.75;4978653;28;104474;-80
2023/08/09 00:20:58;;;;;;;;;0.00;0.00;;;;;-143.90;74.29;74758.75;4979019;28;102014;-80
2023/08/09 00:23:25;;;;;;;;;0.00;0.00;;;;;-143.90;73.91;74752.56;4980396;28;102060;-80
2023/08/09 00:25:52;;;;;;;;;1.00;0.00;;;;;-143.90;75.09;74756.69;4984165;28;102074;-81
2023/08/09 00:28:19;;;;;;;;;0.00;0.00;;;;;-143.90;74.65;74752.56;4977448;28;103986;-81
2023/08/09 00:30:46;;;;;;;;;0.00;0.00;;;;;-143.90;74.78;74758.75;4979755;28;102502;-81
2023/08/09 00:33:13;;;;;;;;;0.00;0.00;;;;;-143.90;75.31;74769.09;4982109;28;102306;-81
2023/08/09 00:35:40;;;;;;;;;0.00;0.00;;;;;-143.90;75.21;74760.81;4982797;28;102594;-80
2023/08/09 00:38:07;;;;;;;;;0.00;0.00;;;;;-143.90;74.85;74760.81;4980339;28;103873;-80
2023/08/09 00:40:35;;;;;;;;;0.00;0.00;;;;;-143.90;75.18;74767.03;4979715;28;101899;-80
2023/08/09 00:43:02;;;;;;;;;0.00;0.00;;;;;-143.90;75.35;74760.81;4977660;28;102154;-80
2023/08/09 00:45:33;;;;;;;;;0.00;0.00;;;;;-143.90;75.94;74760.81;4980173;28;102522;-81
2023/08/09 00:48:00;;;;;;;;;0.00;0.00;;;;;-143.90;75.99;74760.81;4981194;28;104159;-80
2023/08/09 00:50:27;;;;;;;;;0.00;0.00;;;;;-143.90;75.77;74758.75;4977873;28;102070;-80
2023/08/09 00:52:56;;;;;;;;;0.00;0.00;;;;;-143.90;76.01;74769.09;4977174;28;102769;-82
2023/08/09 00:55:23;;;;;;;;;0.00;0.00;;;;;-143.90;76.24;74767.03;4980165;28;102541;-81
2023/08/09 00:57:53;;;;;;;;;0.00;0.00;;;;;-143.90;75.97;74760.81;4981043;28;104185;-80
2023/08/09 01:00:20;;;;;;;;;0.67;0.00;;;;;-143.90;76.20;74767.03;4980100;28;102748;-80
2023/08/09 01:02:47;;;;;;;;;1.00;0.67;;;;;-143.90;77.49;74785.63;4942922;28;103025;-83
2023/08/09 01:05:15;;;;;;;;;2.75;2.00;;;;;-143.90;78.75;74816.66;4982273;28;102264;-81
2023/08/09 01:08:34;;;;;;;;;0.25;0.25;;;;;-143.90;78.54;74800.09;4978561;28;104018;-81
2023/08/09 01:12:07;;;;;;;;;2.50;1.00;;;;;-143.90;78.07;74793.91;4977803;28;102481;-81
2023/08/09 01:15:02;;;;;;;;;0.75;0.75;;;;;-143.90;77.76;74791.84;4979459;28;102211;-80
2023/08/09 01:17:54;;;;;;;;;2.75;1.00;;;;;-143.90;79.43;74829.03;4975377;28;102185;-81
2023/08/09 01:20:37;;;;;;;;;1.00;1.00;;;;;-143.90;79.46;74831.13;4978508;28;103295;-81
2023/08/09 01:23:32;;;;;;;;;0.75;0.75;;;;;-143.90;80.06;74843.53;4978747;28;104050;-81
2023/08/09 01:26:00;;;;;;;;;1.00;1.00;;;;;-143.90;79.07;74833.19;4964206;28;102090;-81
2023/08/09 01:28:27;;;;;;;;;1.00;0.00;;;;;-143.90;79.77;74816.66;4975899;28;103562;-81
2023/08/09 01:30:54;;;;;;;;;0.25;0.25;;;;;-143.90;78.61;74816.66;4980150;28;104484;-81
2023/08/09 01:33:21;;;;;;;;;1.00;0.50;;;;;-143.90;80.00;74829.03;4978947;28;102528;-81
2023/08/09 01:36:05;;;;;;;;;2.00;2.00;;;;;-143.90;79.44;74824.91;4979488;28;102274;-81
2023/08/09 01:38:43;;;;;;;;;0.25;0.25;;;;;-143.90;78.84;74816.66;4980056;28;102086;-81
2023/08/09 01:41:11;;;;;;;;;0.75;0.00;;;;;-143.90;79.23;74816.66;4977189;28;104187;-81
2023/08/09 01:43:38;;;;;;;;;0.25;0.25;;;;;-143.90;79.40;74818.72;4980986;28;102287;-81
2023/08/09 01:46:06;;;;;;;;;0.00;0.00;;;;;-143.90;79.23;74812.50;4977180;28;102507;-81
2023/08/09 01:49:23;;;;;;;;;0.00;0.00;;;;;-143.90;79.18;74812.50;4977996;28;101991;-81
2023/08/09 01:51:53;;;;;;;;;0.25;0.25;;;;;-143.90;78.74;74808.38;4976721;28;104145;-81
2023/08/09 01:57:55;;;;;;;;;0.75;0.75;;;;;-143.90;79.92;74820.78;4977893;28;102723;-81
2023/08/09 02:00:25;;;;;;;;;0.00;0.00;;;;;-143.90;79.31;74824.91;4978057;28;102057;-81
2023/08/09 02:02:52;;;;;;;;;0.00;0.00;;;;;-143.90;79.89;74822.84;4976751;28;105101;-81
2023/08/09 02:05:20;;;;;;;;;0.00;0.00;;;;;-143.90;79.66;74824.91;4964884;28;102262;-81
2023/08/09 02:07:56;;;;;;;;;1.00;0.00;;;;;-143.90;80.61;74812.50;4957288;28;102105;-84
2023/08/09 02:10:26;;;;;;;;;0.00;0.00;;;;;-143.90;79.84;74810.44;4976264;28;102553;-82
2023/08/09 02:12:53;;;;;;;;;0.00;0.00;;;;;-143.90;79.83;74810.44;4978068;28;104052;-81
2023/08/09 02:15:51;;;;;;;;;0.00;0.00;;;;;-143.90;80.70;74810.44;4980451;28;102271;-81
2023/08/09 02:18:18;;;;;;;;;1.00;1.00;;;;;-143.90;80.89;74808.38;4975999;28;102384;-83
2023/08/09 02:20:45;;;;;;;;;0.00;0.00;;;;;-143.90;80.64;74808.38;4977677;28;101928;-84
2023/08/09 02:23:12;;;;;;;;;0.00;0.00;;;;;-143.90;80.58;74804.25;4972602;28;104018;-83
2023/08/09 02:25:39;;;;;;;;;0.00;0.00;;;;;-143.90;81.06;74812.50;4960347;28;103104;-81
2023/08/09 02:35:05;;;;;;;;;0.00;0.00;;;;;-143.90;81.01;74810.44;4960870;28;104394;-83
2023/08/09 02:37:34;;;;;;;;;0.75;0.00;;;;;-143.90;80.96;74810.44;4939647;28;102263;-83
2023/08/09 02:40:08;;;;;;;;;1.00;0.00;;;;;-143.90;81.90;74824.91;4958719;28;101852;-83
2023/08/09 02:43:12;;;;;;;;;0.00;0.00;;;;;-143.90;81.87;74818.72;4939610;28;102469;-83
2023/08/09 02:45:55;;;;;;;;;0.00;0.00;;;;;-143.90;81.03;74829.03;4955823;28;104042;-83
2023/08/09 02:48:22;;;;;;;;;0.00;0.00;;;;;-143.90;81.16;74816.66;4958573;28;102984;-81
2023/08/09 02:50:49;;;;;;;;;0.50;0.00;;;;;-143.90;80.87;74812.50;4939935;28;102046;-83
2023/08/09 02:57:16;;;;;;;;;0.00;0.00;;;;;-143.90;80.56;74808.38;4956530;28;104018;-83
2023/08/09 02:59:43;;;;;;;;;0.00;0.00;;;;;-143.90;80.96;74816.66;4955083;28;101855;-82
2023/08/09 03:02:10;;;;;;;;;0.75;0.75;;;;;-143.90;81.00;74810.44;4959983;28;102552;-82
2023/08/09 03:04:37;;;;;;;;;1.00;1.00;;;;;-143.90;80.65;74816.66;4942164;28;102337;-81
2023/08/09 03:07:04;;;;;;;;;2.00;1.00;;;;;-143.90;82.14;74818.72;4959175;28;105585;-81
2023/08/09 03:09:31;;;;;;;;;1.25;1.25;;;;;-143.90;81.57;74820.78;4958383;28;102328;-81
2023/08/09 03:11:58;;;;;;;;;1.00;1.00;;;;;-143.90;81.78;74820.78;4958757;28;102122;-81
2023/08/09 03:14:25;;;;;;;;;1.00;1.00;;;;;-143.90;81.85;74824.91;4957035;28;102399;-81
2023/08/09 03:16:52;;;;;;;;;0.50;0.50;;;;;-143.90;81.41;74826.97;4948681;28;104044;-82
2023/08/09 03:19:20;;;;;;;;;1.00;1.00;;;;;-143.90;81.39;74824.91;4965340;28;103344;-82
2023/08/09 03:21:47;;;;;;;;;2.00;1.00;;;;;-143.90;81.30;74826.97;4962624;28;102029;-81
2023/08/09 03:24:14;;;;;;;;;1.00;1.00;;;;;-143.90;81.29;74822.84;4962250;28;103501;-82
2023/08/09 03:26:41;;;;;;;;;0.00;0.00;;;;;-143.90;81.36;74829.03;4959688;28;104188;-82
2023/08/09 03:29:08;;;;;;;;;1.00;1.00;;;;;-143.90;80.96;74837.31;4961594;28;102112;-82
2023/08/09 03:31:35;;;;;;;;;0.50;0.50;;;;;-143.90;81.03;74833.19;4962151;28;103150;-82
2023/08/09 03:34:02;;;;;;;;;1.00;1.00;;;;;-143.90;81.06;74835.25;4980157;28;102405;-81
2023/08/09 03:36:29;;;;;;;;;0.75;0.75;;;;;-143.90;80.60;74837.31;4978320;28;104190;-81
2023/08/09 03:42:23;;;;;;;;;2.00;1.25;;;;;-143.90;81.00;74843.53;4983431;28;102234;-81
2023/08/09 03:44:54;;;;;;;;;2.00;1.00;;;;;-143.90;81.90;74849.72;4979642;28;102289;-82
2023/08/09 03:47:24;;;;;;;;;1.00;1.00;;;;;-143.90;81.47;74849.72;4980399;28;103812;-81
2023/08/09 03:53:18;;;;;;;;;1.00;1.00;;;;;-143.90;81.79;74849.72;4982633;28;102407;-82
2023/08/09 03:55:46;;;;;;;;;1.00;0.25;;;;;-143.90;81.63;74843.53;4978089;28;103777;-82
2023/08/09 03:58:13;;;;;;;;;0.00;0.00;;;;;-143.90;81.48;74841.44;4978294;28;104015;-81
2023/08/09 04:00:40;;;;;;;;;0.00;0.00;;;;;-143.90;81.93;74841.44;4982597;28;102237;-81
2023/08/09 04:03:07;;;;;;;;;0.00;0.00;;;;;-143.90;82.18;74835.25;4980313;28;102060;-82
2023/08/09 04:05:35;;;;;;;;;1.00;1.00;;;;;-143.90;82.72;74843.53;4979940;28;102016;-82
2023/08/09 04:08:03;;;;;;;;;0.00;0.00;;;;;-143.90;82.57;74835.25;4979475;28;104068;-81
2023/08/09 04:10:30;;;;;;;;;0.00;0.00;;;;;-143.90;82.72;74833.19;4978527;28;104354;-82
2023/08/09 04:12:57;;;;;;;;;0.25;0.25;;;;;-143.90;81.85;74826.97;4977210;28;101935;-82
2023/08/09 04:15:24;;;;;;;;;0.00;0.00;;;;;-143.90;81.84;74820.78;4977801;28;102844;-81
2023/08/09 04:17:51;;;;;;;;;0.75;0.75;;;;;-143.90;81.21;74824.91;4978270;28;104012;-81
2023/08/09 04:20:19;;;;;;;;;1.00;1.00;;;;;-143.90;81.85;74824.91;4978138;28;102290;-82
2023/08/09 04:22:46;;;;;;;;;0.00;0.00;;;;;-143.90;81.34;74829.03;4976882;28;103534;-82
2023/08/09 04:25:13;;;;;;;;;1.00;1.00;;;;;-143.90;81.41;74818.72;4982625;28;101982;-85
2023/08/09 04:27:40;;;;;;;;;1.00;1.00;;;;;-143.90;81.01;74816.66;4981066;28;104208;-85
2023/08/09 04:30:09;;;;;;;;;0.75;0.75;;;;;-143.90;81.20;74814.56;4961908;28;103031;-85
2023/08/09 04:32:38;;;;;;;;;1.00;1.00;;;;;-143.90;80.84;74806.31;4981380;28;102284;-85
2023/08/09 04:35:08;;;;;;;;;0.00;0.00;;;;;-143.90;81.14;74795.97;4980531;28;103004;-85
2023/08/09 04:37:35;;;;;;;;;1.00;0.50;;;;;-143.90;81.63;74798.03;4981240;28;104120;-84
2023/08/09 04:40:07;;;;;;;;;0.00;0.00;;;;;-143.90;81.55;74789.78;4983544;28;102228;-84
2023/08/09 04:42:34;;;;;;;;;0.00;0.00;;;;;-143.90;81.84;74785.63;4983567;28;102226;-84
2023/08/09 04:45:01;;;;;;;;;0.00;0.00;;;;;-143.90;81.47;74775.31;4984234;28;102785;-85
2023/08/09 04:47:29;;;;;;;;;0.00;0.00;;;;;-143.90;81.14;74771.16;4981032;28;104009;-84
2023/08/09 04:49:57;;;;;;;;;1.00;1.00;;;;;-143.90;81.13;74758.75;4980979;28;101925;-84
2023/08/09 04:52:24;;;;;;;;;1.00;1.00;;;;;-143.90;80.72;74752.56;4979467;28;101914;-84
2023/08/09 04:54:51;;;;;;;;;1.00;1.00;;;;;-143.90;81.01;74758.75;4980673;28;101996;-84
2023/08/09 04:57:18;;;;;;;;;1.00;1.00;;;;;-143.90;80.42;74754.63;4980971;28;104063;-84
2023/08/09 04:59:45;;;;;;;;;0.00;0.00;;;;;-143.90;81.42;74746.34;4979781;28;102135;-84
2023/08/09 05:02:12;;;;;;;;;1.00;1.00;;;;;-143.90;81.54;74740.16;4973654;28;102070;-84
2023/08/09 05:04:39;;;;;;;;;1.00;1.00;;;;;-143.90;81.49;74729.81;4976189;28;102611;-84
2023/08/09 05:07:06;;;;;;;;;0.00;0.00;;;;;-143.90;80.78;74717.41;4980525;28;103990;-83
2023/08/09 05:09:34;;;;;;;;;0.00;0.00;;;;;-143.90;80.78;74715.34;4981795;28;102261;-86
2023/08/09 05:12:01;;;;;;;;;0.00;0.00;;;;;-143.90;80.56;74696.75;4963656;28;101904;-87
2023/08/09 05:14:28;;;;;;;;;1.00;0.00;;;;;-143.90;80.24;74692.63;4982624;28;102218;-87
2023/08/09 05:16:55;;;;;;;;;0.00;0.00;;;;;-143.90;79.39;74684.34;4979089;28;104146;-87
2023/08/09 05:19:22;;;;;;;;;1.00;1.00;;;;;-143.90;79.41;74694.69;4973447;28;102347;-86
2023/08/09 05:21:49;;;;;;;;;1.75;1.00;;;;;-143.90;79.36;74698.81;4982156;28;102185;-86
2023/08/09 05:24:16;;;;;;;;;1.00;0.00;;;;;-143.90;79.10;74709.16;4981641;28;102248;-86
2023/08/09 05:26:43;;;;;;;;;1.00;0.75;;;;;-143.90;79.29;74694.69;4981542;28;104093;-86
2023/08/09 05:29:11;;;;;;;;;2.00;1.75;;;;;-143.90;79.96;74684.34;4977951;28;102081;-86
2023/08/09 05:31:38;;;;;;;;;3.25;3.00;;;;;-143.90;80.27;74655.41;4962941;28;102838;-87
2023/08/09 05:34:05;;;;;;;;;3.25;3.00;;;;;-143.90;79.70;74630.59;4976515;28;102046;-87
2023/08/09 05:36:32;;;;;;;;;2.00;2.00;;;;;-143.90;78.30;74593.38;4958901;28;104000;-86
2023/08/09 05:39:01;;;;;;;;;2.50;2.50;;;;;-143.90;77.26;74558.25;4979569;28;102250;-86
2023/08/09 05:41:28;;;;;;;;;3.00;3.00;;;;;-143.90;75.85;74541.72;4974117;28;102383;-86
2023/08/09 05:43:55;;;;;;;;;4.00;4.00;;;;;-143.90;74.50;74543.78;4980298;28;102148;-86
2023/08/09 05:46:22;;;;;;;;;1.00;1.00;;;;;-143.90;73.84;74545.84;4976169;28;104123;-86
2023/08/09 05:48:50;;;;;;;;;1.33;1.33;;;;;-143.90;74.09;74531.38;4976315;28;101921;-86
2023/08/09 05:51:16;;;;;;;;;2.67;2.67;;;;;-143.90;73.84;74492.09;4981385;28;102279;-86
2023/08/09 05:53:43;;;;;;;;;2.00;2.00;;;;;-143.90;72.69;74481.78;4980712;28;102144;-86
2023/08/09 05:56:10;;;;;;;;;1.00;1.00;;;;;-143.90;71.95;74471.44;4958894;28;104270;-86
2023/08/09 05:58:38;;;;;;;;;2.00;2.00;;;;;-143.90;71.00;74471.44;4977357;28;102330;-87
2023/08/09 06:01:07;;;;;;;;;1.00;1.00;;;;;-143.90;71.10;74461.09;4976378;28;102051;-86
2023/08/09 06:03:39;;;;;;;;;2.33;2.00;;;;;-143.90;71.97;74454.91;4981406;28;102214;-86
2023/08/09 06:06:07;;;;;;;;;0.33;0.33;;;;;-143.90;71.35;74448.69;4975688;28;103682;-87
2023/08/09 06:08:35;;;;;;;;;3.00;2.00;;;;;-143.90;71.27;74419.75;4977499;28;102485;-86
2023/08/09 06:11:03;;;;;;;;;2.00;1.33;;;;;-143.90;69.67;74392.88;4978488;28;102017;-86
2023/08/09 06:13:30;;;;;;;;;2.67;2.00;;;;;-143.90;68.58;74380.47;4980069;28;102919;-86
2023/08/09 06:15:58;;;;;;;;;2.00;2.00;;;;;-143.90;67.68;74349.47;4976368;28;103946;-86
2023/08/09 06:18:25;;;;;;;;;2.00;1.67;;;;;-143.90;68.23;74330.88;4976206;28;104071;-85
2023/08/09 06:20:54;;;;;;;;;2.00;2.00;;;;;-143.90;67.90;74326.75;4980175;28;101810;-86
2023/08/09 06:23:21;;;;;;;;;1.00;1.00;;;;;-143.90;66.05;74332.94;4983162;28;102641;-86
2023/08/09 06:25:49;;;;;;;;;1.00;1.00;;;;;-143.90;67.65;74320.53;4964022;28;104284;-86
2023/08/09 06:28:17;;;;;;;;;2.00;1.00;;;;;-143.90;67.80;74316.41;4978699;28;102040;-86
2023/08/09 06:30:44;;;;;;;;;1.00;1.00;;;;;-143.90;66.54;74301.94;4963231;28;103384;-87
2023/08/09 06:33:11;;;;;;;;;1.00;1.00;;;;;-143.90;65.16;74304.00;4981271;28;102248;-87
2023/08/09 06:35:39;;;;;;;;;1.00;1.00;;;;;-143.90;65.03;74306.06;4981928;28;103997;-86
2023/08/09 06:38:06;;;;;;;;;2.00;2.00;;;;;-143.90;65.83;74312.28;4979858;28;102775;-85
2023/08/09 06:40:42;;;;;;;;;1.00;1.00;;;;;-143.90;64.82;74314.34;4982006;28;103014;-86
2023/08/09 06:43:09;;;;;;;;;1.00;1.00;;;;;-143.90;65.34;74316.41;4978863;28;102215;-85
2023/08/09 06:45:38;;;;;;;;;1.00;1.00;;;;;-143.90;66.56;74328.81;4978950;28;104138;-85
2023/08/09 06:48:07;;;;;;;;;1.00;1.00;;;;;-143.90;66.77;74330.88;4978993;28;102289;-85
2023/08/09 06:50:36;;;;;;;;;1.33;1.33;;;;;-143.90;66.57;74337.06;4963638;28;102388;-85
2023/08/09 06:53:03;;;;;;;;;1.00;1.00;;;;;-143.90;66.50;74349.47;4982299;28;102568;-86
2023/08/09 06:55:30;;;;;;;;;1.00;1.00;;;;;-143.90;67.62;74341.22;4978967;28;103943;-86
2023/08/09 06:57:57;;;;;;;;;0.67;0.67;;;;;-143.90;66.35;74337.06;4959096;28;102258;-86
2023/08/09 07:00:24;;;;;;;;;0.33;0.33;;;;;-143.90;66.59;74324.69;4981156;28;102397;-86
2023/08/09 07:02:51;;;;;;;;;2.00;2.00;;;;;-143.90;66.23;74320.53;4980811;28;102275;-85
2023/08/09 07:05:18;;;;;;;;;0.67;0.67;;;;;-143.90;66.63;74310.22;4955179;28;104082;-86
2023/08/09 07:07:46;;;;;;;;;0.00;0.00;;;;;-143.90;66.52;74287.47;4979734;28;102515;-85
2023/08/09 07:10:17;;;;;;;;;1.00;1.00;;;;;-143.90;66.79;74281.28;4986027;28;102257;-85
2023/08/09 07:12:44;;;;;;;;;0.50;0.50;;;;;-143.90;66.60;74293.66;4958144;28;102664;-85
2023/08/09 07:15:11;;;;;;;;;0.33;0.33;;;;;-143.90;65.38;74291.59;4957435;28;103987;-87
2023/08/09 07:17:39;;;;;;;;;1.00;1.00;;;;;-143.90;64.96;74293.66;4980274;28;101958;-85
2023/08/09 07:20:07;;;;;;;;;1.00;1.00;;;;;-143.90;61.65;74270.94;4979776;28;102299;-86
2023/08/09 07:22:34;;;;;;;;;1.00;1.00;;;;;-143.90;62.40;74225.47;4982408;28;102351;-86
2023/08/09 07:25:02;;;;;;;;;2.00;2.00;;;;;-143.90;62.17;74217.19;4978550;28;104003;-87
2023/08/09 07:27:29;;;;;;;;;2.33;1.67;;;;;-143.90;58.98;74184.13;4979110;28;101903;-87
2023/08/09 07:29:56;;;;;;;;;2.00;2.00;;;;;-143.90;60.77;74169.66;4978143;28;102235;-87
2023/08/09 07:32:23;;;;;;;;;2.00;2.00;;;;;-143.90;57.72;74155.19;4983511;28;102292;-87
2023/08/09 07:34:50;;;;;;;;;1.00;1.00;;;;;-143.90;57.38;74138.66;4977656;28;104250;-88
2023/08/09 07:37:17;;;;;;;;;1.33;1.00;;;;;-143.90;56.77;74115.91;4978005;28;102345;-87
2023/08/09 07:39:44;;;;;;;;;2.00;2.00;;;;;-143.90;56.36;74101.44;4976056;28;102099;-87
2023/08/09 07:42:11;;;;;;;;;2.00;2.00;;;;;-143.90;55.32;74084.91;4979131;28;102433;-88
2023/08/09 07:44:38;;;;;;;;;1.00;1.00;;;;;-143.90;56.10;74066.31;4964719;28;104061;-87
2023/08/09 07:47:05;;;;;;;;;2.33;2.33;;;;;-143.90;56.38;74064.25;4977689;28;102180;-87
2023/08/09 07:49:32;;;;;;;;;3.67;2.00;;;;;-143.90;54.80;74060.13;4978654;28;102106;-88
2023/08/09 07:51:59;;;;;;;;;2.00;1.00;;;;;-143.90;54.68;74037.38;4960469;28;101996;-87
2023/08/09 07:54:26;;;;;;;;;2.00;2.00;;;;;-143.90;55.00;74010.50;4976888;28;104129;-84
2023/08/09 07:56:53;;;;;;;;;2.00;1.00;;;;;-143.90;56.62;73993.97;4978573;28;102462;-86
2023/08/09 07:59:21;;;;;;;;;2.67;2.67;;;;;-143.90;56.06;73973.31;4980146;28;101985;-88
2023/08/09 08:01:48;;;;;;;;;3.33;2.00;;;;;-143.90;53.95;73973.31;4982984;28;102058;-87
2023/08/09 08:04:15;;;;;;;;;2.33;1.00;;;;;-143.90;52.24;73956.78;4971040;28;103997;-89
2023/08/09 08:06:42;;;;;;;;;1.00;1.00;;;;;-143.90;55.26;73942.31;4980932;28;102476;-87
2023/08/09 08:09:12;;;;;;;;;1.33;1.33;;;;;-143.90;54.19;73931.97;4978788;28;102205;-87
2023/08/09 08:11:40;;;;;;;;;1.33;1.00;;;;;-143.90;53.90;73900.97;4985272;28;102060;-87
2023/08/09 08:14:09;;;;;;;;;1.33;1.33;;;;;-143.90;52.75;73890.63;4979749;28;102832;-87
2023/08/09 08:16:37;;;;;;;;;2.00;1.00;;;;;-143.90;52.92;73890.63;4979268;28;102344;-87
2023/08/09 08:19:04;;;;;;;;;1.00;0.67;;;;;-143.90;53.76;73909.25;4976450;28;102441;-84
2023/08/09 08:21:31;;;;;;;;;0.67;0.67;;;;;-143.90;53.46;73894.78;4984770;28;102076;-88
2023/08/09 08:23:59;;;;;;;;;2.00;2.00;;;;;-143.90;52.70;73882.38;4961013;28;103081;-88
2023/08/09 08:26:27;;;;;;;;;2.67;1.67;;;;;-143.90;53.94;73869.97;4979764;28;102054;-89
2023/08/09 08:28:53;;;;;;;;;1.33;1.33;;;;;-143.90;50.63;73880.31;4975929;28;102040;-86
2023/08/09 08:31:22;;;;;;;;;1.00;1.00;;;;;-143.90;51.38;73911.31;4982746;28;102267;-88
2023/08/09 08:33:51;;;;;;;;;1.33;1.33;;;;;-143.90;49.11;73940.25;4967009;28;104036;-85
2023/08/09 08:36:19;;;;;;;;;0.67;0.67;;;;;-143.90;50.25;73944.38;4984386;28;101868;-89
2023/08/09 08:38:57;;;;;;;;;0.67;0.67;;;;;-143.90;50.64;73940.25;4983408;28;102353;-86
2023/08/09 08:41:24;;;;;;;;;1.67;1.67;;;;;-143.90;52.41;73944.38;4982710;28;102524;-90
2023/08/09 08:43:51;;;;;;;;;1.00;0.67;;;;;-143.90;51.12;73952.63;4981185;28;104236;-90
2023/08/09 08:46:20;;;;;;;;;1.00;1.00;;;;;-143.90;50.62;73960.91;4982436;28;101929;-87
2023/08/09 08:48:50;;;;;;;;;2.00;2.00;;;;;-143.90;49.79;73973.31;4978827;28;101935;-88
2023/08/09 08:51:18;;;;;;;;;1.67;1.67;;;;;-143.90;50.18;73981.56;4984915;28;102257;-90
2023/08/09 08:53:45;;;;;;;;;0.67;0.67;;;;;-143.90;51.16;73979.50;4980671;28;104055;-88
2023/08/09 08:56:14;;;;;;;;;1.00;1.00;;;;;-143.90;48.68;74012.56;4978804;28;102493;-89
2023/08/09 08:58:41;;;;;;;;;1.33;1.33;;;;;-143.90;50.86;74010.50;4979448;28;102138;-90
2023/08/09 09:01:09;;;;;;;;;1.33;1.33;;;;;-143.90;50.56;74016.72;4980868;28;102475;-91
2023/08/09 09:03:38;;;;;;;;;1.00;1.00;;;;;-143.90;50.87;74014.66;4982125;28;104551;-90
2023/08/09 09:06:05;;;;;;;;;1.67;0.67;;;;;-143.90;49.89;74018.78;4964073;28;102336;-88
2023/08/09 09:08:43;;;;;;;;;1.33;1.33;;;;;-143.90;49.42;74031.19;4982805;28;101957;-88
2023/08/09 09:11:22;;;;;;;;;0.67;0.00;;;;;-143.90;50.89;74039.44;4982247;28;102278;-89
2023/08/09 09:13:51;;;;;;;;;1.67;1.67;;;;;-143.90;50.48;74055.97;4979666;28;104033;-89
2023/08/09 09:16:19;;;;;;;;;2.67;2.00;;;;;-143.90;50.41;74066.31;4974972;28;102315;-91
2023/08/09 09:18:48;;;;;;;;;1.33;1.00;;;;;-143.90;51.03;74066.31;4978804;28;102190;-91
2023/08/09 09:21:17;;;;;;;;;2.00;2.00;;;;;-143.90;50.84;74070.44;4983741;28;102147;-89
2023/08/09 09:23:45;;;;;;;;;1.00;1.00;;;;;-143.90;50.85;74068.38;4977783;28;104277;-90
2023/08/09 09:26:14;;;;;;;;;1.00;1.00;;;;;-143.90;52.95;74076.66;4976913;28;102298;-83
2023/08/09 09:28:44;;;;;;;;;1.00;1.00;;;;;-143.90;52.81;74089.06;4976582;28;102088;-88
2023/08/09 09:31:13;;;;;;;;;1.00;1.00;;;;;-143.90;50.85;74105.59;4980681;28;102311;-88
2023/08/09 09:33:46;;;;;;;;;2.00;2.00;;;;;-143.90;51.10;74132.44;4982271;28;103451;-90
2023/08/09 09:36:13;;;;;;;;;2.33;1.33;;;;;-143.90;50.52;74130.38;4979701;28;102570;-85
2023/08/09 09:38:42;;;;;;;;;2.00;2.00;;;;;-143.90;50.01;74134.53;4981864;28;101976;-87
2023/08/09 09:41:10;;;;;;;;;1.33;1.00;;;;;-143.90;51.17;74134.53;4985824;28;101989;-89
2023/08/09 09:43:39;;;;;;;;;1.00;1.00;;;;;-143.90;50.69;74144.84;4977556;28;104011;-90
2023/08/09 09:46:24;;;;;;;;;1.00;1.00;;;;;-143.90;51.50;74149.00;4980703;28;101932;-90
2023/08/09 09:49:08;;;;;;;;;2.00;2.00;;;;;-143.90;52.87;74140.72;4978762;28;102281;-90
2023/08/09 09:51:35;;;;;;;;;1.00;1.00;;;;;-143.90;53.36;74138.66;4983573;28;102242;-91
2023/08/09 09:54:04;;;;;;;;;2.00;2.00;;;;;-143.90;52.89;74151.06;4981835;28;103918;-88
2023/08/09 09:56:32;;;;;;;;;2.00;1.67;;;;;-143.90;51.41;74155.19;4978777;28;102240;-89
2023/08/09 09:59:00;;;;;;;;;1.00;1.00;;;;;-143.90;51.50;74155.19;4980959;28;102127;-89
2023/08/09 10:01:30;;;;;;;;;1.00;1.00;;;;;-143.90;51.54;74153.13;4982832;28;103159;-87
2023/08/09 10:04:06;;;;;;;;;1.00;1.00;;;;;-143.90;52.49;74151.06;4981460;28;104084;-90
2023/08/09 10:06:41;;;;;;;;;1.67;1.00;;;;;-143.90;53.23;74151.06;4981602;28;102327;-89
2023/08/09 10:09:13;;;;;;;;;1.00;0.00;;;;;-143.90;53.12;74155.19;4980801;28;102015;-90
2023/08/09 10:11:43;;;;;;;;;2.00;1.00;;;;;-143.90;54.26;74177.94;4979845;28;102117;-90
2023/08/09 10:14:12;;;;;;;;;3.00;2.00;;;;;-143.90;55.31;74186.19;4977086;28;104110;-87
2023/08/09 10:16:40;;;;;;;;;2.00;2.00;;;;;-143.90;55.76;74192.41;4982215;28;102228;-91
2023/08/09 10:19:15;;;;;;;;;1.00;1.00;;;;;-143.90;57.25;74246.13;4980965;28;102844;-88
2023/08/09 10:21:43;;;;;;;;;3.33;2.67;;;;;-143.90;58.04;74262.66;4980354;28;102418;-88
2023/08/09 10:24:12;;;;;;;;;2.33;2.33;;;;;-143.90;62.11;74312.28;4979085;28;104025;-88
2023/08/09 10:26:44;;;;;;;;;2.00;2.00;;;;;-143.90;63.20;74320.53;4978187;28;102112;-87
2023/08/09 10:29:20;;;;;;;;;1.67;1.67;;;;;-143.90;63.80;74291.59;4979372;28;102358;-89
2023/08/09 10:31:59;;;;;;;;;1.33;1.33;;;;;-143.90;62.83;74308.13;4976038;28;102553;-89
2023/08/09 10:34:35;;;;;;;;;2.00;2.00;;;;;-143.90;63.17;74304.00;4977740;28;104009;-90
2023/08/09 10:37:03;;;;;;;;;1.00;1.00;;;;;-143.90;63.05;74291.59;4978120;28;103676;-90
2023/08/09 10:39:31;;;;;;;;;1.00;1.00;;;;;-143.90;62.78;74308.13;4977644;28;102402;-88
2023/08/09 10:42:09;;;;;;;;;1.00;1.00;;;;;-143.90;65.09;74297.81;4982493;28;102582;-89
2023/08/09 10:44:49;;;;;;;;;1.33;1.33;;;;;-143.90;64.55;74312.28;4979210;28;104015;-87
2023/08/09 10:47:22;;;;;;;;;3.00;2.00;;;;;-143.90;63.47;74312.28;4968360;28;101961;-86
2023/08/09 10:49:49;;;;;;;;;2.00;1.67;;;;;-143.90;65.74;74304.00;4961946;28;102534;-88
2023/08/09 10:52:32;;;;;;;;;3.00;2.00;;;;;-143.90;65.27;74301.94;4982920;28;102277;-88
2023/08/09 10:55:18;;;;;;;;;2.00;2.00;;;;;-143.90;65.72;74306.06;4981877;28;104386;-88
2023/08/09 10:57:49;;;;;;;;;2.33;2.00;;;;;-143.90;65.60;74314.34;4980552;28;101920;-89
2023/08/09 11:00:18;;;;;;;;;2.00;2.00;;;;;-143.90;65.68;74328.81;4979559;28;102739;-90
2023/08/09 11:02:49;;;;;;;;;3.33;2.33;;;;;-143.90;65.49;74374.28;4978911;28;102211;-88
2023/08/09 11:05:17;;;;;;;;;3.00;3.00;;;;;-143.90;65.35;74425.97;4978982;28;104207;-87
2023/08/09 11:07:50;;;;;;;;;2.00;2.00;;;;;-143.90;66.67;74434.22;4977966;28;102106;-87
2023/08/09 11:10:37;;;;;;;;;1.00;1.00;;;;;-143.90;67.68;74456.97;4977484;28;102110;-88
2023/08/09 11:13:14;;;;;;;;;0.00;0.00;;;;;-143.90;70.08;74456.97;4982301;28;102310;-87
2023/08/09 11:15:44;;;;;;;;;2.67;1.00;;;;;-143.90;70.56;74461.09;4981041;28;104024;-84
2023/08/09 11:18:12;;;;;;;;;1.00;1.00;;;;;-143.90;70.68;74473.50;4976089;28;102383;-87
2023/08/09 11:20:39;;;;;;;;;2.00;2.00;;;;;-143.90;72.81;74469.38;4980040;28;102515;-86
2023/08/09 11:23:07;;;;;;;;;1.00;1.00;;;;;-143.90;72.60;74461.09;4978180;28;102161;-87
2023/08/09 11:25:38;;;;;;;;;0.67;0.67;;;;;-143.90;72.25;74446.63;4980655;28;104021;-87
2023/08/09 11:28:10;;;;;;;;;2.00;2.00;;;;;-143.90;71.52;74436.28;4976912;28;102182;-86
2023/08/09 11:30:38;;;;;;;;;1.00;1.00;;;;;-143.90;71.62;74423.88;4977539;28;102434;-87
2023/08/09 11:33:07;;;;;;;;;1.00;1.00;;;;;-143.90;72.55;74411.50;4980672;28;102045;-87
2023/08/09 11:35:42;;;;;;;;;0.67;0.67;;;;;-143.90;71.38;74399.09;4978841;28;104232;-84
2023/08/09 11:38:16;;;;;;;;;1.00;1.00;;;;;-143.90;73.10;74392.88;4964164;28;101916;-83
2023/08/09 11:40:46;;;;;;;;;1.00;1.00;;;;;-143.90;72.71;74378.41;4984298;28;101863;-83
2023/08/09 11:43:16;;;;;;;;;1.00;1.00;;;;;-143.90;71.59;74370.16;4981522;28;102341;-85
2023/08/09 11:45:53;;;;;;;;;1.67;1.00;;;;;-143.90;72.47;74359.81;4984625;28;104227;-85
2023/08/09 11:48:27;;;;;;;;;1.67;1.67;;;;;-143.90;72.64;74353.63;4980902;28;102138;-88